Bulverde, Texas
Current Conditions -  °F | °C
As of 7:51 PM on Wednesday 22 Oct 2014 (Local Time) from KSAT Reporting Station
Scattered Clouds Scattered Clouds  
Wind Chill: 78°   Ceiling: Unl
Heat Index: 79°   Visibility: 10mi
Dew Point: 55°   Wind: 3mph
Humidity: 45%   Direction: 70°ENE
Pressure: 30.06"   Gusts: NA
Location:  29.74°N, 98.45°W
Report Text: KSAT 230051Z 07003KT 10SM FEW065 SCT170 26/13 A3006 RMK AO2 SLP164 T02560128
Loading
Personal Weather Stations






























Interactive Weather Map
Tropical Storm Tracking
New forecast layout! Learn more

10-Day Weather Forecast

Advertisements
Track Severe Weather on mobile